FQMA/MPM METAR and TAF weather

Enter ICAO airport designator
Station Type Date Time Source
FQMA METAR 2021/04/17 03:00 UTC NOAA

FQMA 170300Z 24013KT 9999 BKN025 17/12 Q1026 NOSIG


Station Type Date Time Source
FQMA Decoded METAR 2021/04/17 03:00 UTC NOAA

Maputo / Mavalane, Mozambique (FQMA) 25-55S 032-34E 44M
Apr 16, 2021 - 11:00 PM EDT / 2021.04.17 0300 UTC
Wind: from the WSW (240 degrees) at 15 MPH (13 KT):0
Visibility: greater than 7 mile(s):0
Sky conditions: mostly cloudy
Temperature: 62 F (17 C)
Dew Point: 53 F (12 C)
Relative Humidity: 72%
Pressure (altimeter): 30.30 in. Hg (1026 hPa)
ob: FQMA 170300Z 24013KT 9999 BKN025 17/12 Q1026 NOSIG
cycle: 3

Station Type Date Time Source
FQMA TAF 2021/04/17 06:27 UTC NOAA

TAF FQMA 170400Z 1706/1812 22010KT 9999 SCT020 TX25/1712Z TN20/1803Z
BECMG 1712/1714 15010KT
BECMG 1719/1721 09005KT
BECMG 1801/1803 28004KT

Example: see airport list